createdAt,value
2017-06-24T00:01:03.263Z,99.99
2017-06-24T00:02:24.784Z,99.99
2017-06-24T00:03:47.546Z,99.99
2017-06-24T00:05:09.986Z,99.99
2017-06-24T00:06:32.485Z,99.99
2017-06-24T00:07:54.609Z,99.99
2017-06-24T00:09:17.402Z,99.99
2017-06-24T00:10:39.210Z,99.99
2017-06-24T00:12:00.869Z,99.99
2017-06-24T00:13:22.654Z,99.99
2017-06-24T00:14:45.412Z,99.99
2017-06-24T00:16:07.600Z,99.99
2017-06-24T00:17:28.473Z,99.99
2017-06-24T00:18:50.612Z,99.99
2017-06-24T00:20:12.719Z,99.99
2017-06-24T00:21:35.189Z,99.99
2017-06-24T00:22:56.695Z,99.99
2017-06-24T00:24:18.940Z,99.99
2017-06-24T00:25:41.102Z,99.99
2017-06-24T00:27:03.623Z,99.99
2017-06-24T00:28:25.762Z,99.99
2017-06-24T00:29:47.562Z,99.99
2017-06-24T00:31:10.439Z,99.99
2017-06-24T00:32:32.258Z,99.99
2017-06-24T00:33:54.098Z,99.99
2017-06-24T00:35:16.262Z,99.99
2017-06-24T00:36:38.712Z,99.99
2017-06-24T00:38:00.294Z,99.99
2017-06-24T00:39:22.221Z,99.99
2017-06-24T00:40:44.345Z,99.99
2017-06-24T00:42:07.252Z,99.99
2017-06-24T00:43:29.692Z,99.99
2017-06-24T00:44:51.712Z,99.99
2017-06-24T00:46:13.832Z,99.99
2017-06-24T00:47:36.014Z,99.99
2017-06-24T00:48:58.446Z,99.99
2017-06-24T00:50:21.012Z,99.99
2017-06-24T00:51:43.149Z,99.99
2017-06-24T00:53:06.072Z,99.99
2017-06-24T00:54:28.495Z,99.99
2017-06-24T00:55:50.648Z,99.99
2017-06-24T00:57:13.085Z,99.99
2017-06-24T00:58:35.847Z,99.99
2017-06-24T00:59:57.501Z,99.99
2017-06-24T01:01:19.312Z,99.99
2017-06-24T01:02:41.428Z,99.99
2017-06-24T01:04:03.571Z,99.99
2017-06-24T01:05:25.888Z,99.99
2017-06-24T01:06:48.103Z,99.99
2017-06-24T01:08:10.230Z,99.99
2017-06-24T01:09:32.804Z,99.99
2017-06-24T01:10:54.914Z,99.99
2017-06-24T01:12:17.110Z,99.99
2017-06-24T01:13:39.243Z,99.99
2017-06-24T01:15:01.391Z,99.99
2017-06-24T01:16:23.391Z,99.99
2017-06-24T01:17:45.496Z,99.99
2017-06-24T01:19:07.602Z,99.99
2017-06-24T01:20:30.342Z,99.99
2017-06-24T01:21:51.822Z,99.99
2017-06-24T01:23:13.654Z,99.99
2017-06-24T01:24:35.464Z,99.99
2017-06-24T01:25:57.620Z,99.99
2017-06-24T01:27:19.842Z,99.99
2017-06-24T01:28:42.293Z,99.99
2017-06-24T01:30:04.132Z,99.99
2017-06-24T01:31:26.941Z,99.99
2017-06-24T01:32:48.433Z,99.99
2017-06-24T01:34:10.230Z,99.99
2017-06-24T01:35:32.510Z,99.99
2017-06-24T01:36:55.052Z,99.99
2017-06-24T01:38:17.185Z,99.99
2017-06-24T01:39:39.307Z,99.99
2017-06-24T01:41:01.759Z,99.99
2017-06-24T01:42:24.275Z,99.99
2017-06-24T01:43:46.107Z,99.99
2017-06-24T01:45:07.620Z,99.99
2017-06-24T01:46:29.747Z,99.99
2017-06-24T01:47:52.117Z,99.99
2017-06-24T01:49:14.573Z,99.99
2017-06-24T01:50:37.019Z,99.99
2017-06-24T01:51:59.131Z,99.99
2017-06-24T01:53:21.518Z,99.99
2017-06-24T01:54:43.352Z,99.99
2017-06-24T01:56:04.839Z,99.99
2017-06-24T01:57:27.030Z,99.99
2017-06-24T01:58:49.783Z,99.99
2017-06-24T02:00:12.261Z,99.99
2017-06-24T02:01:34.704Z,99.99
2017-06-24T02:02:57.229Z,99.99
2017-06-24T02:04:20.012Z,99.99
2017-06-24T02:05:41.584Z,99.99
2017-06-24T02:07:04.033Z,99.99
2017-06-24T02:08:25.953Z,99.99
2017-06-24T02:09:47.794Z,99.99
2017-06-24T02:11:10.233Z,99.99
2017-06-24T02:12:31.447Z,99.99
2017-06-24T02:13:52.952Z,99.99
2017-06-24T02:15:15.089Z,99.99
2017-06-24T02:16:37.246Z,99.99
2017-06-24T02:17:59.351Z,99.99
2017-06-24T02:19:21.157Z,99.99
2017-06-24T02:20:43.298Z,99.99
2017-06-24T02:22:05.837Z,99.99
2017-06-24T02:23:28.249Z,99.99
2017-06-24T02:24:50.062Z,99.99
2017-06-24T02:26:12.225Z,99.99
2017-06-24T02:27:34.431Z,99.99
2017-06-24T02:28:56.042Z,99.99
2017-06-24T02:30:17.866Z,99.99
2017-06-24T02:31:40.463Z,99.99
2017-06-24T02:33:02.577Z,99.99
2017-06-24T02:34:25.225Z,99.99
2017-06-24T02:35:47.134Z,99.99
2017-06-24T02:37:09.573Z,99.99
2017-06-24T02:38:31.415Z,99.99
2017-06-24T02:39:53.345Z,99.99
2017-06-24T02:41:15.463Z,99.99
2017-06-24T02:42:36.989Z,99.99
2017-06-24T02:43:59.204Z,99.99
2017-06-24T02:45:21.339Z,99.99
2017-06-24T02:46:42.925Z,99.99
2017-06-24T02:48:05.394Z,99.99
2017-06-24T02:49:26.974Z,99.99
2017-06-24T02:50:49.561Z,99.99
2017-06-24T02:52:11.354Z,99.99
2017-06-24T02:53:33.546Z,99.99
2017-06-24T02:54:55.348Z,99.99
2017-06-24T02:56:17.465Z,99.99
2017-06-24T02:57:40.018Z,99.99
2017-06-24T02:59:02.113Z,99.99
2017-06-24T03:00:24.243Z,99.99
2017-06-24T03:01:46.363Z,99.99
2017-06-24T03:03:08.523Z,99.99
2017-06-24T03:04:31.093Z,99.99
2017-06-24T03:05:52.337Z,99.99
2017-06-24T03:07:13.844Z,99.99
2017-06-24T03:08:36.299Z,99.99
2017-06-24T03:09:58.193Z,99.99
2017-06-24T03:11:20.304Z,99.99
2017-06-24T03:12:42.423Z,99.99
2017-06-24T03:14:04.549Z,99.99
2017-06-24T03:15:26.742Z,99.99
2017-06-24T03:16:47.630Z,99.99
2017-06-24T03:18:10.079Z,99.99
2017-06-24T03:19:32.304Z,99.99
2017-06-24T03:20:54.633Z,99.99
2017-06-24T03:22:16.464Z,99.99
2017-06-24T03:23:38.369Z,99.99
2017-06-24T03:25:00.555Z,99.99
2017-06-24T03:26:23.026Z,99.99
2017-06-24T03:27:44.847Z,99.99
2017-06-24T03:29:06.754Z,99.99
2017-06-24T03:30:29.174Z,99.99
2017-06-24T03:31:50.952Z,99.99
2017-06-24T03:33:13.079Z,99.99
2017-06-24T03:34:34.567Z,99.99
2017-06-24T03:35:56.993Z,99.99
2017-06-24T03:37:18.730Z,99.99
2017-06-24T03:38:40.573Z,99.99
2017-06-24T03:40:02.692Z,99.99
2017-06-24T03:41:24.833Z,99.99
2017-06-24T03:42:47.263Z,99.99
2017-06-24T03:44:09.432Z,99.99
2017-06-24T03:45:31.570Z,99.99
2017-06-24T03:46:53.368Z,99.99
2017-06-24T03:48:15.214Z,99.99
2017-06-24T03:49:37.393Z,99.99
2017-06-24T03:50:58.560Z,99.99
2017-06-24T03:52:20.064Z,99.99
2017-06-24T03:53:42.739Z,99.99
2017-06-24T03:55:04.520Z,99.99
2017-06-24T03:56:26.622Z,99.99
2017-06-24T03:57:49.054Z,99.99
2017-06-24T03:59:10.863Z,99.99
2017-06-24T04:00:33.088Z,99.99
2017-06-24T04:01:55.213Z,99.99
2017-06-24T04:03:17.323Z,99.99
2017-06-24T04:04:40.058Z,99.99
2017-06-24T04:06:01.919Z,99.99
2017-06-24T04:07:24.350Z,99.99
2017-06-24T04:08:46.919Z,99.99
2017-06-24T04:10:09.238Z,99.99
2017-06-24T04:11:30.802Z,99.99
2017-06-24T04:12:52.740Z,99.99
2017-06-24T04:14:14.904Z,99.99
2017-06-24T04:15:37.426Z,99.99
2017-06-24T04:16:59.871Z,99.99
2017-06-24T04:18:22.006Z,99.99
2017-06-24T04:19:44.114Z,99.99
2017-06-24T04:21:06.395Z,99.99
2017-06-24T04:22:28.514Z,99.99
2017-06-24T04:23:50.745Z,99.99
2017-06-24T04:25:12.871Z,99.99
2017-06-24T04:26:35.458Z,99.99
2017-06-24T04:27:57.897Z,99.99
2017-06-24T04:29:20.133Z,99.99
2017-06-24T04:30:42.590Z,99.99
2017-06-24T04:32:04.823Z,99.99
2017-06-24T04:33:26.951Z,99.99
2017-06-24T04:34:48.564Z,99.99
2017-06-24T04:36:10.687Z,99.99
2017-06-24T04:37:32.943Z,99.99
2017-06-24T04:38:55.080Z,99.99
2017-06-24T04:40:16.892Z,99.99
2017-06-24T04:41:38.377Z,99.99
2017-06-24T04:43:00.615Z,99.99
2017-06-24T04:44:22.117Z,99.99
2017-06-24T04:45:43.977Z,99.99
2017-06-24T04:47:05.795Z,99.99
2017-06-24T04:48:28.214Z,99.99
2017-06-24T04:49:50.801Z,99.99
2017-06-24T04:51:12.604Z,99.99
2017-06-24T04:52:33.801Z,99.99
2017-06-24T04:53:56.520Z,99.99
2017-06-24T04:55:18.448Z,99.99
2017-06-24T04:56:39.933Z,99.99
2017-06-24T04:58:01.873Z,99.99
2017-06-24T04:59:23.765Z,99.99
2017-06-24T05:00:46.105Z,99.99
2017-06-24T05:02:08.565Z,99.99
2017-06-24T05:03:30.675Z,99.99
2017-06-24T05:04:53.394Z,99.99
2017-06-24T05:06:15.824Z,99.99
2017-06-24T05:07:38.372Z,99.99
2017-06-24T05:09:00.224Z,99.99
2017-06-24T05:10:22.339Z,99.99
2017-06-24T05:11:44.472Z,99.99
2017-06-24T05:13:06.674Z,99.99
2017-06-24T05:14:29.078Z,99.99
2017-06-24T05:15:51.193Z,99.99
2017-06-24T05:17:13.344Z,99.99
2017-06-24T05:18:35.843Z,99.99
2017-06-24T05:19:57.961Z,99.99
2017-06-24T05:21:20.464Z,99.99
2017-06-24T05:22:42.656Z,99.99
2017-06-24T05:24:04.546Z,99.99
2017-06-24T05:25:26.408Z,99.99
2017-06-24T05:26:48.751Z,99.99
2017-06-24T05:28:09.926Z,99.99
2017-06-24T05:29:31.786Z,99.99
2017-06-24T05:30:54.202Z,99.99
2017-06-24T05:32:16.343Z,99.99
2017-06-24T05:33:38.162Z,99.99
2017-06-24T05:34:59.971Z,99.99
2017-06-24T05:36:22.402Z,99.99
2017-06-24T05:37:44.499Z,99.99
2017-06-24T05:39:06.300Z,99.99
2017-06-24T05:40:27.784Z,99.99
2017-06-24T05:41:50.295Z,99.99
2017-06-24T05:43:12.342Z,99.99
2017-06-24T05:44:34.233Z,99.99
2017-06-24T05:45:56.461Z,99.99
2017-06-24T05:47:18.569Z,99.99
2017-06-24T05:48:41.019Z,99.99
2017-06-24T05:50:03.603Z,99.99
2017-06-24T05:51:25.470Z,99.99
2017-06-24T05:52:46.970Z,99.99
2017-06-24T05:54:09.397Z,99.99
2017-06-24T05:55:31.216Z,99.99
2017-06-24T05:56:53.058Z,99.99
2017-06-24T05:58:14.893Z,99.99
2017-06-24T05:59:37.369Z,99.99
2017-06-24T06:00:59.176Z,99.99
2017-06-24T06:02:21.335Z,99.99
2017-06-24T06:03:43.754Z,99.99
2017-06-24T06:05:06.439Z,99.99
2017-06-24T06:06:28.231Z,99.99
2017-06-24T06:07:50.393Z,99.99
2017-06-24T06:09:12.864Z,99.99
2017-06-24T06:10:35.335Z,99.99
2017-06-24T06:11:57.788Z,99.99
2017-06-24T06:13:20.243Z,99.99
2017-06-24T06:14:42.824Z,99.99
2017-06-24T06:16:05.173Z,99.99
2017-06-24T06:17:26.965Z,99.99
2017-06-24T06:18:49.087Z,99.99
2017-06-24T06:20:11.203Z,99.99
2017-06-24T06:21:34.004Z,99.99
2017-06-24T06:22:55.874Z,99.99
2017-06-24T06:24:18.197Z,99.99
2017-06-24T06:25:40.415Z,99.99
2017-06-24T06:27:03.174Z,99.99
2017-06-24T06:28:24.986Z,99.99
2017-06-24T06:29:46.472Z,99.99
2017-06-24T06:31:08.298Z,99.99
2017-06-24T06:32:30.721Z,99.99
2017-06-24T06:33:53.034Z,99.99
2017-06-24T06:35:15.171Z,99.99
2017-06-24T06:36:36.683Z,99.99
2017-06-24T06:37:58.422Z,99.99
2017-06-24T06:39:20.553Z,99.99
2017-06-24T06:40:42.674Z,99.99
2017-06-24T06:42:04.575Z,99.99
2017-06-24T06:43:27.065Z,99.99
2017-06-24T06:44:49.640Z,99.99
2017-06-24T06:46:11.154Z,99.99
2017-06-24T06:47:32.955Z,99.99
2017-06-24T06:48:55.754Z,99.99
2017-06-24T06:50:17.613Z,99.99
2017-06-24T06:51:39.414Z,99.99
2017-06-24T06:53:01.875Z,99.99
2017-06-24T06:54:23.708Z,99.99
2017-06-24T06:55:46.158Z,99.99
2017-06-24T06:57:08.696Z,99.99
2017-06-24T06:58:31.322Z,99.99
2017-06-24T06:59:53.783Z,99.99
2017-06-24T07:01:16.300Z,99.99
2017-06-24T07:02:38.623Z,99.99
2017-06-24T07:04:01.244Z,99.99
2017-06-24T07:05:23.344Z,99.99
2017-06-24T07:06:45.463Z,99.99
2017-06-24T07:08:07.315Z,99.99
2017-06-24T07:09:29.455Z,99.99
2017-06-24T07:10:51.632Z,99.99
2017-06-24T07:12:13.465Z,99.99
2017-06-24T07:13:35.597Z,99.99
2017-06-24T07:14:58.158Z,99.99
2017-06-24T07:16:20.924Z,99.99
2017-06-24T07:17:43.084Z,99.99
2017-06-24T07:19:05.207Z,99.99
2017-06-24T07:20:27.357Z,99.99
2017-06-24T07:21:50.062Z,99.99
2017-06-24T07:23:12.206Z,99.99
2017-06-24T07:24:34.106Z,99.99
2017-06-24T07:25:55.944Z,99.99
2017-06-24T07:27:18.771Z,99.99
2017-06-24T07:28:40.912Z,99.99
2017-06-24T07:30:03.051Z,99.99
2017-06-24T07:31:25.522Z,99.99
2017-06-24T07:32:47.959Z,99.99
2017-06-24T07:34:10.097Z,99.99
2017-06-24T07:35:32.226Z,99.99
2017-06-24T07:36:54.957Z,99.99
2017-06-24T07:38:17.505Z,99.99
2017-06-24T07:39:38.693Z,99.99
2017-06-24T07:41:01.123Z,99.99
2017-06-24T07:42:22.336Z,99.99
2017-06-24T07:43:44.935Z,99.99
2017-06-24T07:45:07.389Z,99.99
2017-06-24T07:46:29.194Z,99.99
2017-06-24T07:47:51.536Z,99.99
2017-06-24T07:49:14.540Z,99.99
2017-06-24T07:50:36.674Z,99.99
2017-06-24T07:51:58.566Z,99.99
2017-06-24T07:53:20.747Z,99.99
2017-06-24T07:54:42.934Z,99.99
2017-06-24T07:56:05.388Z,99.99
2017-06-24T07:57:26.585Z,99.93
2017-06-24T07:58:48.723Z,99.99
2017-06-24T08:00:11.113Z,99.99
2017-06-24T08:01:33.577Z,99.99
2017-06-24T08:02:55.728Z,99.99
2017-06-24T08:04:17.985Z,99.99
2017-06-24T08:05:40.435Z,99.99
2017-06-24T08:07:02.994Z,99.99
2017-06-24T08:08:25.143Z,99.99
2017-06-24T08:09:47.428Z,99.99
2017-06-24T08:11:09.947Z,99.99
2017-06-24T08:12:31.773Z,99.99
2017-06-24T08:13:53.358Z,99.99
2017-06-24T08:15:15.538Z,99.99
2017-06-24T08:16:37.662Z,99.99
2017-06-24T08:17:59.535Z,99.99
2017-06-24T08:19:21.653Z,99.99
2017-06-24T08:20:43.769Z,99.99
2017-06-24T08:22:05.932Z,99.99
2017-06-24T08:23:27.741Z,99.99
2017-06-24T08:24:50.194Z,99.99
2017-06-24T08:26:12.026Z,99.99
2017-06-24T08:27:34.504Z,99.99
2017-06-24T08:28:56.327Z,99.99
2017-06-24T08:30:18.158Z,99.99
2017-06-24T08:31:40.311Z,99.99
2017-06-24T08:33:02.746Z,99.99
2017-06-24T08:34:25.006Z,99.99
2017-06-24T08:35:47.062Z,99.99
2017-06-24T08:37:08.600Z,99.99
2017-06-24T08:38:31.106Z,99.99
2017-06-24T08:39:52.951Z,99.99
2017-06-24T08:41:15.114Z,99.99
2017-06-24T08:42:37.024Z,99.99
2017-06-24T08:43:59.208Z,99.99
2017-06-24T08:45:21.355Z,99.99
2017-06-24T08:46:43.551Z,99.99
2017-06-24T08:48:05.055Z,98.77
2017-06-24T08:49:27.764Z,99.26
2017-06-24T08:50:50.228Z,99.99
2017-06-24T08:52:12.472Z,99.99
2017-06-24T08:53:34.953Z,99.99
2017-06-24T08:54:57.042Z,99.99
2017-06-24T08:56:19.152Z,99.99
2017-06-24T08:57:41.604Z,99.99
2017-06-24T08:59:04.155Z,99.99
2017-06-24T09:00:26.587Z,99.99
2017-06-24T09:01:48.433Z,99.99
2017-06-24T09:03:10.864Z,99.99
2017-06-24T09:04:33.305Z,99.99
2017-06-24T09:05:55.883Z,99.99
2017-06-24T09:07:18.083Z,97.96
2017-06-24T09:08:40.212Z,99.02
2017-06-24T09:10:02.697Z,98.82
2017-06-24T09:11:25.199Z,99.11
2017-06-24T09:12:47.727Z,99.3
2017-06-24T09:14:10.164Z,99.11
2017-06-24T09:15:31.973Z,99.3
2017-06-24T09:16:54.570Z,99.02
2017-06-24T09:18:17.171Z,99.79
2017-06-24T09:19:39.322Z,99.59
2017-06-24T09:21:01.463Z,99.99
2017-06-24T09:22:23.894Z,99.99
2017-06-24T09:23:45.710Z,99.99
2017-06-24T09:25:08.185Z,99.99
2017-06-24T09:26:30.533Z,99.99
2017-06-24T09:27:53.254Z,99.99
2017-06-24T09:29:15.109Z,99.99
2017-06-24T09:30:36.935Z,99.99
2017-06-24T09:31:59.078Z,99.99
2017-06-24T09:33:21.519Z,99.99
2017-06-24T09:34:43.639Z,99.99
2017-06-24T09:36:06.093Z,99.99
2017-06-24T09:37:28.628Z,99.99
2017-06-24T09:38:51.393Z,99.99
2017-06-24T09:40:13.838Z,99.99
2017-06-24T09:41:36.293Z,99.99
2017-06-24T09:42:57.823Z,99.99
2017-06-24T09:44:20.660Z,99.99
2017-06-24T09:45:42.793Z,99.99
2017-06-24T09:47:04.937Z,99.99
2017-06-24T09:48:27.381Z,99.99
2017-06-24T09:49:49.861Z,99.99
2017-06-24T09:51:11.668Z,99.99
2017-06-24T09:52:33.795Z,99.99
2017-06-24T09:53:56.267Z,99.99
2017-06-24T09:55:18.385Z,98.92
2017-06-24T09:56:40.355Z,97.33
2017-06-24T09:58:02.154Z,95.98
2017-06-24T09:59:24.282Z,96.75
2017-06-24T10:00:46.465Z,97.81
2017-06-24T10:02:08.274Z,96.85
2017-06-24T10:03:30.769Z,96.46
2017-06-24T10:04:52.925Z,96.08
2017-06-24T10:06:15.495Z,95.5
2017-06-24T10:07:37.974Z,95.59
2017-06-24T10:09:00.461Z,96.37
2017-06-24T10:10:22.927Z,97.57
2017-06-24T10:11:45.114Z,98.05
2017-06-24T10:13:06.940Z,97.96
2017-06-24T10:14:28.476Z,98.82
2017-06-24T10:15:50.712Z,98.72
2017-06-24T10:17:13.022Z,99.16
2017-06-24T10:18:35.476Z,99.54
2017-06-24T10:19:57.604Z,99.74
2017-06-24T10:21:19.721Z,99.64
2017-06-24T10:22:41.877Z,98.05
2017-06-24T10:24:04.342Z,95.21
2017-06-24T10:25:26.180Z,93.96
2017-06-24T10:26:47.999Z,96.08
2017-06-24T10:28:10.737Z,96.03
2017-06-24T10:29:32.993Z,98.05
2017-06-24T10:30:55.130Z,97.96
2017-06-24T10:32:17.000Z,99.99
2017-06-24T10:33:38.766Z,99.99
2017-06-24T10:35:01.203Z,99.99
2017-06-24T10:36:23.008Z,99.99
2017-06-24T10:37:45.192Z,99.99
2017-06-24T10:39:07.904Z,99.99
2017-06-24T10:40:30.140Z,99.99
2017-06-24T10:41:52.602Z,99.99
2017-06-24T10:43:15.162Z,99.99
2017-06-24T10:44:37.974Z,99.99
2017-06-24T10:45:59.849Z,99.99
2017-06-24T10:47:21.669Z,99.99
2017-06-24T10:48:43.812Z,99.99
2017-06-24T10:50:05.807Z,99.99
2017-06-24T10:51:27.762Z,99.99
2017-06-24T10:52:49.923Z,99.99
2017-06-24T10:54:12.091Z,99.99
2017-06-24T10:55:34.473Z,99.99
2017-06-24T10:56:56.993Z,99.99
2017-06-24T10:58:18.805Z,99.99
2017-06-24T10:59:41.290Z,99.99
2017-06-24T11:01:03.875Z,99.99
2017-06-24T11:02:26.345Z,99.99
2017-06-24T11:03:48.488Z,99.99
2017-06-24T11:05:10.942Z,99.99
2017-06-24T11:06:33.272Z,99.99
2017-06-24T11:07:55.424Z,99.99
2017-06-24T11:09:17.600Z,99.99
2017-06-24T11:10:39.744Z,99.99
2017-06-24T11:12:02.252Z,99.99
2017-06-24T11:13:24.076Z,99.99
2017-06-24T11:14:46.547Z,99.99
2017-06-24T11:16:08.364Z,99.99
2017-06-24T11:17:30.751Z,99.3
2017-06-24T11:18:52.922Z,98.92
2017-06-24T11:20:15.432Z,98.82
2017-06-24T11:21:37.275Z,99.11
2017-06-24T11:22:59.372Z,98.05
2017-06-24T11:24:21.263Z,96.89
2017-06-24T11:25:43.418Z,97.28
2017-06-24T11:27:05.866Z,97.47
2017-06-24T11:28:28.612Z,95.69
2017-06-24T11:29:50.425Z,95.02
2017-06-24T11:31:12.948Z,93.91
2017-06-24T11:32:34.790Z,94
2017-06-24T11:33:57.608Z,94.15
2017-06-24T11:35:19.731Z,93.96
2017-06-24T11:36:41.549Z,94.92
2017-06-24T11:38:04.003Z,95.59
2017-06-24T11:39:26.501Z,95.4
2017-06-24T11:40:48.617Z,95.79
2017-06-24T11:42:10.756Z,95.94
2017-06-24T11:43:33.299Z,96.89
2017-06-24T11:44:56.133Z,96.42
2017-06-24T11:46:17.650Z,96.17
2017-06-24T11:47:39.474Z,94.63
2017-06-24T11:49:02.087Z,94.82
2017-06-24T11:50:24.262Z,94.82
2017-06-24T11:51:46.083Z,95.4
2017-06-24T11:53:08.207Z,94.92
2017-06-24T11:54:30.351Z,95.36
2017-06-24T11:55:53.054Z,94.49
2017-06-24T11:57:15.283Z,96.22
2017-06-24T11:58:37.114Z,96.03
2017-06-24T11:59:59.565Z,96.03
2017-06-24T12:01:22.682Z,97.28
2017-06-24T12:02:44.832Z,98.19
2017-06-24T12:04:07.124Z,99.99
2017-06-24T12:05:28.945Z,99.98
2017-06-24T12:06:52.239Z,99.99
2017-06-24T12:08:14.495Z,99.99
2017-06-24T12:09:36.938Z,99.99
2017-06-24T12:10:59.191Z,99.99
2017-06-24T12:12:21.643Z,99.99
2017-06-24T12:13:43.761Z,99.99
2017-06-24T12:15:06.222Z,99.99
2017-06-24T12:16:28.402Z,99.99
2017-06-24T12:17:51.172Z,99.99
2017-06-24T12:19:13.731Z,99.99
2017-06-24T12:20:36.192Z,99.99
2017-06-24T12:21:57.746Z,99.99
2017-06-24T12:23:20.589Z,99.99
2017-06-24T12:24:42.773Z,99.99
2017-06-24T12:26:04.345Z,99.99
2017-06-24T12:27:26.623Z,99.99
2017-06-24T12:28:49.091Z,99.99
2017-06-24T12:30:10.935Z,99.88
2017-06-24T12:31:33.371Z,99.99
2017-06-24T12:32:55.186Z,98.82
2017-06-24T12:34:17.886Z,99.84
2017-06-24T12:35:40.445Z,99.99
2017-06-24T12:37:02.376Z,99.93
2017-06-24T12:38:24.498Z,99.99
2017-06-24T12:39:47.302Z,99.99
2017-06-24T12:41:08.823Z,99.99
2017-06-24T12:42:31.064Z,99.99
2017-06-24T12:43:53.503Z,99.99
2017-06-24T12:45:16.363Z,99.99
2017-06-24T12:46:38.530Z,98.49
2017-06-24T12:48:01.007Z,98.34
2017-06-24T12:49:22.835Z,99.98
2017-06-24T12:50:44.962Z,99.99
2017-06-24T12:52:07.103Z,99.99
2017-06-24T12:53:28.687Z,99.99
2017-06-24T12:54:50.925Z,99.99
2017-06-24T12:56:13.385Z,99.99
2017-06-24T12:57:35.862Z,99.99
2017-06-24T12:58:58.003Z,99.99
2017-06-24T13:00:20.153Z,99.99
2017-06-24T13:01:42.723Z,99.99
2017-06-24T13:03:05.166Z,99.99
2017-06-24T13:04:27.444Z,99.99
2017-06-24T13:05:49.603Z,99.99
2017-06-24T13:07:11.802Z,99.99
2017-06-24T13:08:34.430Z,99.99
2017-06-24T13:09:56.275Z,99.99
2017-06-24T13:11:18.123Z,99.99
2017-06-24T13:12:40.612Z,99.99
2017-06-24T13:14:02.417Z,99.99
2017-06-24T13:15:23.913Z,99.99
2017-06-24T13:16:46.074Z,99.99
2017-06-24T13:18:08.783Z,98.97
2017-06-24T13:19:31.247Z,96.27
2017-06-24T13:20:53.393Z,93.71
2017-06-24T13:22:15.856Z,91.53
2017-06-24T13:23:37.783Z,91.44
2017-06-24T13:24:59.602Z,89.36
2017-06-24T13:26:21.862Z,89.36
2017-06-24T13:27:44.315Z,88.97
2017-06-24T13:29:07.066Z,88.39
2017-06-24T13:30:29.212Z,85.83
2017-06-24T13:31:51.223Z,86.21
2017-06-24T13:33:13.349Z,86.02
2017-06-24T13:34:35.913Z,86.69
2017-06-24T13:35:58.068Z,86.85
2017-06-24T13:37:20.286Z,86.07
2017-06-24T13:38:42.728Z,85.69
2017-06-24T13:40:04.808Z,84.95
2017-06-24T13:41:27.284Z,85.4
2017-06-24T13:42:49.424Z,86.17
2017-06-24T13:44:11.614Z,85.3
2017-06-24T13:45:34.353Z,83.75
2017-06-24T13:46:56.167Z,83.12
2017-06-24T13:48:18.612Z,83.45
2017-06-24T13:49:40.847Z,83.06
2017-06-24T13:51:03.763Z,83.7
2017-06-24T13:52:25.908Z,82.93
2017-06-24T13:53:47.732Z,82.83
2017-06-24T13:55:09.571Z,82.35
2017-06-24T13:56:32.185Z,81.04
2017-06-24T13:57:54.630Z,80.55
2017-06-24T13:59:17.257Z,80.74
2017-06-24T14:00:39.720Z,82.25
2017-06-24T14:02:01.902Z,82.64
2017-06-24T14:03:24.041Z,83.66
2017-06-24T14:04:46.492Z,82.21
2017-06-24T14:06:08.626Z,82.69
2017-06-24T14:07:31.421Z,82.79
2017-06-24T14:08:53.533Z,85.16
2017-06-24T14:10:16.074Z,86.22
2017-06-24T14:11:38.562Z,86.13
2017-06-24T14:13:00.404Z,87.44
2017-06-24T14:14:22.866Z,88.5
2017-06-24T14:15:45.084Z,88.75
2017-06-24T14:17:07.243Z,90.77
2017-06-24T14:18:29.703Z,92.6
2017-06-24T14:19:52.164Z,93.91
2017-06-24T14:21:14.613Z,95.06
2017-06-24T14:22:36.453Z,96.7
2017-06-24T14:23:59.153Z,96.22
2017-06-24T14:25:21.322Z,96.51
2017-06-24T14:26:43.814Z,98.25
2017-06-24T14:28:05.654Z,97.47
2017-06-24T14:29:28.091Z,97.57
2017-06-24T14:30:49.924Z,98.34
2017-06-24T14:32:11.748Z,98.73
2017-06-24T14:33:33.892Z,99.21
2017-06-24T14:34:56.673Z,99.74
2017-06-24T14:36:19.128Z,99.74
2017-06-24T14:37:41.300Z,99.99
2017-06-24T14:39:02.923Z,99.99
2017-06-24T14:40:25.340Z,99.99
2017-06-24T14:41:47.264Z,99.99
2017-06-24T14:43:09.200Z,99.07
2017-06-24T14:44:31.743Z,97.77
2017-06-24T14:45:54.554Z,97.47
2017-06-24T14:47:16.989Z,93.37
2017-06-24T14:48:39.062Z,91.68
2017-06-24T14:50:01.679Z,89.99
2017-06-24T14:51:23.788Z,90.57
2017-06-24T14:52:46.378Z,89.45
2017-06-24T14:54:08.819Z,88.68
2017-06-24T14:55:31.392Z,87.71
2017-06-24T14:56:54.147Z,88.68
2017-06-24T14:58:15.763Z,90.81
2017-06-24T14:59:37.973Z,88.35
2017-06-24T15:01:00.124Z,87.67
2017-06-24T15:02:22.913Z,89.31
2017-06-24T15:03:44.537Z,89.41
2017-06-24T15:05:06.837Z,87.19
2017-06-24T15:06:29.312Z,85.78
2017-06-24T15:07:52.119Z,85.74
2017-06-24T15:09:14.431Z,85.49
2017-06-24T15:10:36.317Z,84.33
2017-06-24T15:11:58.492Z,83.51
2017-06-24T15:13:20.957Z,82.93
2017-06-24T15:14:43.114Z,84.57
2017-06-24T15:16:05.268Z,84.67
2017-06-24T15:17:27.885Z,84.57
2017-06-24T15:18:50.292Z,83.47
2017-06-24T15:20:12.146Z,85.49
2017-06-24T15:21:33.981Z,85.49
2017-06-24T15:22:56.526Z,86.32
2017-06-24T15:24:19.253Z,87.19
2017-06-24T15:25:41.745Z,88.59
2017-06-24T15:27:03.988Z,88.79
2017-06-24T15:28:26.444Z,88.02
2017-06-24T15:29:48.192Z,87.73
2017-06-24T15:31:09.994Z,88.02
2017-06-24T15:32:32.602Z,87.92
2017-06-24T15:33:55.083Z,87.09
2017-06-24T15:35:16.956Z,87.63
2017-06-24T15:36:39.394Z,88.79
2017-06-24T15:38:01.990Z,88.89
2017-06-24T15:39:24.134Z,89.95
2017-06-24T15:40:46.350Z,91.64
2017-06-24T15:42:08.483Z,92.5
2017-06-24T15:43:30.636Z,92.56
2017-06-24T15:44:53.133Z,93.81
2017-06-24T15:46:15.913Z,94.87
2017-06-24T15:47:37.426Z,94.29
2017-06-24T15:48:59.586Z,94.2
2017-06-24T15:50:21.771Z,93.33
2017-06-24T15:51:44.190Z,91.93
2017-06-24T15:53:06.013Z,90.48
2017-06-24T15:54:28.147Z,90.43
2017-06-24T15:55:50.713Z,88.89
2017-06-24T15:57:13.181Z,89.95
2017-06-24T15:58:35.473Z,89.17
2017-06-24T15:59:57.303Z,89.75
2017-06-24T16:01:19.496Z,90.23
2017-06-24T16:02:42.310Z,88.4
2017-06-24T16:04:04.223Z,88.4
2017-06-24T16:05:25.764Z,89.56
2017-06-24T16:06:47.912Z,90.19
2017-06-24T16:08:10.403Z,89.71
2017-06-24T16:09:32.703Z,89.71
2017-06-24T16:10:54.853Z,90.53
2017-06-24T16:12:17.395Z,90.72
2017-06-24T16:13:39.853Z,91.3
2017-06-24T16:15:02.301Z,92.71
2017-06-24T16:16:24.436Z,95.89
2017-06-24T16:17:46.903Z,97.62
2017-06-24T16:19:08.704Z,98.87
2017-06-24T16:20:30.938Z,98.2
2017-06-24T16:21:53.396Z,98.97
2017-06-24T16:23:15.598Z,99.5
2017-06-24T16:24:38.350Z,99.74
2017-06-24T16:26:00.535Z,99.64
2017-06-24T16:27:23.024Z,99.99
2017-06-24T16:28:45.520Z,99.07
2017-06-24T16:30:07.964Z,99.55
2017-06-24T16:31:30.188Z,99.07
2017-06-24T16:32:52.353Z,99.99
2017-06-24T16:34:14.512Z,99.99
2017-06-24T16:35:37.434Z,99.99
2017-06-24T16:36:59.612Z,99.98
2017-06-24T16:38:22.073Z,97.52
2017-06-24T16:39:44.231Z,95.98
2017-06-24T16:41:06.734Z,94.68
2017-06-24T16:42:28.955Z,94.48
2017-06-24T16:43:51.177Z,93.47
2017-06-24T16:45:13.003Z,93.47
2017-06-24T16:46:35.602Z,92.99
2017-06-24T16:47:57.543Z,91.78
2017-06-24T16:49:20.023Z,90.87
2017-06-24T16:50:42.199Z,90.19
2017-06-24T16:52:05.024Z,90.58
2017-06-24T16:53:27.159Z,90.72
2017-06-24T16:54:49.362Z,89.37
2017-06-24T16:56:11.192Z,89.56
2017-06-24T16:57:33.072Z,90.62
2017-06-24T16:58:55.255Z,89.85
2017-06-24T17:00:17.741Z,88.79
2017-06-24T17:01:39.642Z,87.53
2017-06-24T17:03:02.154Z,87.87
2017-06-24T17:04:24.592Z,87.09
2017-06-24T17:05:47.059Z,88.11
2017-06-24T17:07:09.331Z,89.07
2017-06-24T17:08:32.112Z,89.07
2017-06-24T17:09:53.946Z,89.03
2017-06-24T17:11:16.131Z,89.67
2017-06-24T17:12:38.583Z,90.72
2017-06-24T17:14:01.154Z,90.44
2017-06-24T17:15:23.064Z,90.72
2017-06-24T17:16:45.203Z,90.82
2017-06-24T17:18:07.172Z,90.44
2017-06-24T17:19:29.639Z,90.24
2017-06-24T17:20:52.121Z,90.15
2017-06-24T17:22:14.288Z,90.24
2017-06-24T17:23:36.544Z,89.28
2017-06-24T17:24:58.855Z,88.51
2017-06-24T17:26:21.546Z,88.45
2017-06-24T17:27:44.032Z,88.07
2017-06-24T17:29:06.290Z,87.59
2017-06-24T17:30:29.015Z,87.49
2017-06-24T17:31:51.812Z,87.2
2017-06-24T17:33:13.654Z,87.4
2017-06-24T17:34:35.534Z,87.44
2017-06-24T17:35:57.838Z,88.17
2017-06-24T17:37:20.045Z,88.55
2017-06-24T17:38:42.252Z,89.71
2017-06-24T17:40:04.382Z,89.67